createdAt,value
2018-08-10T00:02:07.277Z,4.63
2018-08-10T00:04:37.864Z,5.03
2018-08-10T00:07:09.389Z,5.00
2018-08-10T00:09:39.225Z,5.40
2018-08-10T00:12:08.829Z,5.43
2018-08-10T00:14:38.359Z,4.90
2018-08-10T00:17:08.003Z,4.20
2018-08-10T00:19:38.287Z,5.20
2018-08-10T00:22:08.089Z,4.40
2018-08-10T00:24:37.604Z,4.17
2018-08-10T00:27:07.214Z,3.77
2018-08-10T00:29:36.740Z,5.03
2018-08-10T00:32:06.395Z,4.07
2018-08-10T00:34:36.723Z,4.57
2018-08-10T00:37:06.549Z,4.40
2018-08-10T00:39:37.202Z,5.40
2018-08-10T00:42:08.090Z,4.83
2018-08-10T00:44:37.708Z,5.10
2018-08-10T00:47:08.291Z,5.87
2018-08-10T00:49:37.862Z,5.27
2018-08-10T00:52:07.720Z,5.00
2018-08-10T00:54:37.413Z,5.57
2018-08-10T00:57:08.108Z,5.23
2018-08-10T00:59:38.202Z,4.13
2018-08-10T01:02:08.143Z,4.60
2018-08-10T01:04:39.468Z,4.63
2018-08-10T01:07:08.923Z,4.40
2018-08-10T01:09:39.213Z,4.73
2018-08-10T01:12:08.814Z,4.80
2018-08-10T01:14:38.410Z,3.80
2018-08-10T01:17:08.058Z,4.10
2018-08-10T01:19:37.910Z,4.00
2018-08-10T01:22:07.468Z,3.70
2018-08-10T01:24:39.436Z,4.20
2018-08-10T01:27:14.794Z,3.57
2018-08-10T01:29:45.088Z,3.70
2018-08-10T01:32:15.035Z,3.63
2018-08-10T01:34:44.616Z,3.70
2018-08-10T01:37:14.221Z,4.60
2018-08-10T01:39:45.764Z,2.97
2018-08-10T01:42:15.733Z,3.70
2018-08-10T01:44:45.581Z,3.43
2018-08-10T01:47:15.048Z,2.80
2018-08-10T01:49:45.405Z,3.20
2018-08-10T01:52:15.921Z,3.27
2018-08-10T01:54:45.611Z,3.00
2018-08-10T01:57:15.264Z,3.13
2018-08-10T01:59:44.912Z,2.23
2018-08-10T02:02:14.644Z,2.10
2018-08-10T02:04:46.154Z,1.60
2018-08-10T02:07:16.813Z,1.00
2018-08-10T02:09:47.035Z,1.23
2018-08-10T02:12:16.505Z,0.87
2018-08-10T02:14:46.067Z,0.97
2018-08-10T02:17:15.685Z,1.10
2018-08-10T02:19:45.829Z,0.83
2018-08-10T02:22:17.336Z,0.70
2018-08-10T02:24:47.744Z,0.93
2018-08-10T02:27:17.316Z,0.63
2018-08-10T02:29:46.796Z,0.93
2018-08-10T02:32:16.361Z,0.90
2018-08-10T02:34:46.116Z,0.93
2018-08-10T02:37:15.746Z,0.67
2018-08-10T02:39:45.997Z,0.90
2018-08-10T02:42:16.383Z,0.60
2018-08-10T02:44:45.913Z,1.20
2018-08-10T02:47:19.536Z,0.63
2018-08-10T02:49:49.138Z,0.70
2018-08-10T02:52:19.546Z,1.07
2018-08-10T02:54:50.321Z,1.17
2018-08-10T02:57:20.143Z,1.13
2018-08-10T02:59:49.601Z,1.30
2018-08-10T03:02:19.095Z,1.00
2018-08-10T03:04:49.160Z,1.47
2018-08-10T03:07:19.649Z,0.87
2018-08-10T03:09:49.175Z,1.23
2018-08-10T03:12:18.710Z,1.30
2018-08-10T03:14:49.186Z,1.10
2018-08-10T03:17:18.700Z,1.40
2018-08-10T03:19:48.260Z,1.17
2018-08-10T03:22:17.842Z,0.70
2018-08-10T03:24:47.637Z,0.93
2018-08-10T03:27:19.023Z,1.17
2018-08-10T03:29:48.548Z,1.50
2018-08-10T03:32:18.490Z,1.13
2018-08-10T03:34:48.250Z,1.40
2018-08-10T03:37:18.474Z,1.43
2018-08-10T03:39:48.348Z,1.10
2018-08-10T03:42:18.690Z,1.20
2018-08-10T03:44:48.913Z,1.43
2018-08-10T03:47:18.445Z,1.07
2018-08-10T03:49:47.976Z,1.70
2018-08-10T03:52:17.428Z,1.07
2018-08-10T03:54:46.974Z,1.20
2018-08-10T03:57:17.126Z,1.13
2018-08-10T03:59:48.787Z,1.33
2018-08-10T04:02:22.510Z,1.40
2018-08-10T04:04:52.280Z,1.57
2018-08-10T04:07:22.437Z,0.90
2018-08-10T04:09:54.956Z,1.37
2018-08-10T04:12:24.451Z,1.10
2018-08-10T04:14:54.081Z,1.03
2018-08-10T04:17:26.854Z,1.20
2018-08-10T04:19:56.844Z,1.40
2018-08-10T04:22:26.790Z,1.07
2018-08-10T04:24:56.341Z,2.30
2018-08-10T04:27:25.892Z,1.27
2018-08-10T04:29:55.409Z,0.90
2018-08-10T04:32:25.313Z,1.00
2018-08-10T04:34:55.584Z,0.97
2018-08-10T04:37:25.121Z,1.13
2018-08-10T04:39:54.729Z,0.77
2018-08-10T04:42:24.323Z,0.83
2018-08-10T04:44:54.304Z,1.40
2018-08-10T04:47:24.499Z,1.10
2018-08-10T04:49:54.828Z,1.03
2018-08-10T04:52:25.393Z,1.73
2018-08-10T04:54:56.035Z,1.37
2018-08-10T04:57:25.584Z,1.20
2018-08-10T04:59:55.389Z,0.90
2018-08-10T05:02:28.528Z,0.83
2018-08-10T05:04:59.301Z,1.07
2018-08-10T05:07:29.629Z,0.90
2018-08-10T05:09:59.450Z,1.17
2018-08-10T05:12:29.389Z,1.03
2018-08-10T05:15:00.174Z,1.17
2018-08-10T05:17:30.417Z,1.37
2018-08-10T05:20:00.260Z,0.90
2018-08-10T05:22:30.495Z,0.97
2018-08-10T05:25:00.458Z,1.10
2018-08-10T05:27:31.458Z,1.20
2018-08-10T05:30:02.558Z,1.30
2018-08-10T05:32:33.014Z,1.50
2018-08-10T05:35:02.555Z,0.87
2018-08-10T05:37:32.090Z,1.43
2018-08-10T05:40:07.213Z,1.20
2018-08-10T05:42:37.477Z,0.90
2018-08-10T05:45:07.455Z,1.17
2018-08-10T05:47:37.903Z,1.60
2018-08-10T05:50:07.846Z,1.10
2018-08-10T05:52:37.466Z,0.90
2018-08-10T05:55:07.480Z,1.47
2018-08-10T05:57:37.328Z,1.07
2018-08-10T06:00:08.212Z,0.83
2018-08-10T06:02:38.964Z,1.17
2018-08-10T06:05:08.551Z,1.73
2018-08-10T06:07:38.407Z,1.23
2018-08-10T06:10:09.694Z,1.40
2018-08-10T06:12:39.762Z,0.77
2018-08-10T06:15:13.861Z,1.10
2018-08-10T06:17:43.697Z,1.10
2018-08-10T06:20:14.365Z,1.07
2018-08-10T06:22:45.335Z,1.20
2018-08-10T06:25:15.713Z,0.60
2018-08-10T06:27:45.247Z,0.80
2018-08-10T06:30:15.280Z,1.10
2018-08-10T06:32:45.463Z,1.00
2018-08-10T06:35:15.304Z,0.93
2018-08-10T06:37:44.750Z,1.00
2018-08-10T06:40:15.200Z,0.70
2018-08-10T06:42:44.852Z,0.80
2018-08-10T06:45:14.481Z,0.70
2018-08-10T06:47:43.937Z,1.83
2018-08-10T06:50:13.393Z,1.10
2018-08-10T06:52:42.892Z,0.70
2018-08-10T06:55:12.464Z,1.00
2018-08-10T06:57:42.527Z,0.90
2018-08-10T07:00:12.078Z,0.97
2018-08-10T07:02:43.185Z,0.80
2018-08-10T07:05:12.727Z,0.77
2018-08-10T07:07:43.044Z,1.03
2018-08-10T07:10:12.641Z,0.87
2018-08-10T07:12:42.092Z,1.27
2018-08-10T07:15:11.740Z,0.93
2018-08-10T07:17:41.277Z,1.10
2018-08-10T07:20:11.902Z,0.80
2018-08-10T07:22:42.540Z,0.77
2018-08-10T07:25:13.344Z,1.20
2018-08-10T07:27:43.245Z,0.80
2018-08-10T07:30:12.931Z,0.80
2018-08-10T07:32:42.604Z,0.70
2018-08-10T07:35:12.226Z,0.70
2018-08-10T07:37:41.996Z,0.93
2018-08-10T07:40:11.693Z,0.60
2018-08-10T07:42:41.149Z,1.10
2018-08-10T07:45:10.560Z,1.10
2018-08-10T07:47:40.233Z,1.10
2018-08-10T07:50:10.375Z,0.90
2018-08-10T07:52:40.039Z,1.40
2018-08-10T07:55:09.500Z,1.23
2018-08-10T07:57:39.045Z,1.00
2018-08-10T08:00:09.158Z,1.40
2018-08-10T08:02:39.258Z,1.53
2018-08-10T08:05:09.162Z,1.57
2018-08-10T08:07:38.666Z,2.53
2018-08-10T08:10:08.518Z,1.10
2018-08-10T08:12:38.449Z,1.23
2018-08-10T08:15:08.020Z,1.20
2018-08-10T08:17:37.705Z,1.37
2018-08-10T08:20:08.240Z,1.00
2018-08-10T08:22:37.757Z,0.73
2018-08-10T08:25:07.343Z,1.30
2018-08-10T08:27:36.970Z,1.17
2018-08-10T08:30:09.441Z,1.27
2018-08-10T08:32:39.613Z,1.70
2018-08-10T08:35:09.305Z,1.00
2018-08-10T08:37:39.395Z,1.17
2018-08-10T08:40:18.488Z,0.90
2018-08-10T08:42:49.132Z,0.97
2018-08-10T08:46:22.571Z,1.10
2018-08-10T08:48:54.081Z,1.17
2018-08-10T08:51:25.849Z,1.30
2018-08-10T08:54:12.580Z,1.67
2018-08-10T08:56:44.568Z,0.90
2018-08-10T08:59:15.513Z,1.20
2018-08-10T09:01:46.969Z,1.10
2018-08-10T09:05:27.197Z,1.10
2018-08-10T09:07:56.833Z,0.90
2018-08-10T09:10:27.724Z,0.90
2018-08-10T09:12:58.055Z,1.00
2018-08-10T09:15:27.635Z,0.70
2018-08-10T09:17:58.126Z,0.97
2018-08-10T09:20:27.758Z,0.97
2018-08-10T09:22:58.273Z,1.40
2018-08-10T09:25:28.464Z,1.23
2018-08-10T09:27:58.056Z,1.40
2018-08-10T09:30:27.995Z,1.17
2018-08-10T09:32:57.482Z,1.10
2018-08-10T09:35:27.389Z,0.90
2018-08-10T09:37:57.101Z,0.97
2018-08-10T09:40:26.665Z,1.53
2018-08-10T09:42:56.266Z,1.00
2018-08-10T09:45:26.067Z,1.10
2018-08-10T09:47:55.739Z,1.00
2018-08-10T09:50:25.371Z,1.10
2018-08-10T09:53:00.561Z,1.00
2018-08-10T09:55:35.499Z,1.10
2018-08-10T09:58:08.594Z,1.07
2018-08-10T10:00:43.707Z,1.00
2018-08-10T10:03:17.352Z,1.00
2018-08-10T10:05:48.219Z,1.80
2018-08-10T10:08:18.277Z,1.33
2018-08-10T10:10:47.802Z,0.77
2018-08-10T10:13:17.584Z,1.03
2018-08-10T10:15:47.249Z,0.70
2018-08-10T10:18:17.778Z,1.03
2018-08-10T10:20:48.371Z,0.87
2018-08-10T10:23:17.803Z,1.30
2018-08-10T10:25:47.520Z,0.80
2018-08-10T10:28:17.655Z,0.90
2018-08-10T10:30:47.192Z,0.90
2018-08-10T10:33:16.859Z,0.93
2018-08-10T10:35:46.496Z,1.30
2018-08-10T10:38:16.096Z,0.70
2018-08-10T10:40:45.607Z,0.90
2018-08-10T10:43:15.060Z,0.90
2018-08-10T10:45:45.328Z,0.97
2018-08-10T10:48:14.842Z,0.80
2018-08-10T10:50:47.398Z,0.83
2018-08-10T10:53:16.824Z,0.80
2018-08-10T10:55:46.337Z,0.70
2018-08-10T10:58:16.047Z,0.90
2018-08-10T11:00:45.585Z,0.90
2018-08-10T11:03:15.118Z,1.10
2018-08-10T11:05:44.706Z,0.80
2018-08-10T11:08:14.350Z,1.00
2018-08-10T11:10:44.046Z,0.90
2018-08-10T11:13:13.712Z,0.90
2018-08-10T11:15:43.217Z,0.70
2018-08-10T11:18:12.997Z,0.90
2018-08-10T11:20:42.559Z,1.03
2018-08-10T11:23:12.081Z,0.83
2018-08-10T11:25:42.220Z,1.70
2018-08-10T11:28:11.895Z,0.93
2018-08-10T11:30:41.406Z,1.13
2018-08-10T11:33:11.016Z,1.27
2018-08-10T11:35:40.605Z,1.20
2018-08-10T11:38:10.184Z,1.57
2018-08-10T11:40:39.765Z,1.30
2018-08-10T11:43:09.209Z,0.90
2018-08-10T11:45:38.786Z,1.30
2018-08-10T11:48:08.398Z,1.50
2018-08-10T11:50:37.884Z,1.80
2018-08-10T11:53:07.530Z,1.50
2018-08-10T11:55:37.721Z,1.30
2018-08-10T11:58:07.819Z,1.90
2018-08-10T12:00:37.318Z,2.00
2018-08-10T12:03:07.047Z,1.47
2018-08-10T12:05:36.542Z,1.33
2018-08-10T12:08:06.481Z,1.30
2018-08-10T12:10:36.236Z,1.47
2018-08-10T12:13:05.839Z,1.60
2018-08-10T12:15:35.342Z,1.30
2018-08-10T12:18:04.894Z,1.53
2018-08-10T12:20:34.382Z,1.83
2018-08-10T12:23:03.937Z,1.50
2018-08-10T12:25:33.626Z,2.03
2018-08-10T12:28:03.248Z,1.30
2018-08-10T12:30:32.849Z,1.77
2018-08-10T12:33:02.414Z,1.60
2018-08-10T12:35:31.933Z,1.80
2018-08-10T12:38:01.525Z,1.57
2018-08-10T12:40:31.088Z,2.80
2018-08-10T12:43:00.657Z,1.40
2018-08-10T12:45:30.171Z,1.57
2018-08-10T12:47:59.847Z,1.70
2018-08-10T12:50:29.520Z,1.50
2018-08-10T12:52:59.128Z,1.60
2018-08-10T12:55:28.878Z,1.40
2018-08-10T12:57:58.511Z,2.47
2018-08-10T13:00:28.062Z,1.57
2018-08-10T13:02:57.962Z,1.37
2018-08-10T13:05:27.529Z,1.60
2018-08-10T13:07:57.104Z,1.80
2018-08-10T13:10:26.577Z,1.20
2018-08-10T13:12:56.010Z,1.40
2018-08-10T13:15:25.496Z,1.13
2018-08-10T13:17:55.137Z,1.67
2018-08-10T13:20:24.733Z,1.70
2018-08-10T13:22:55.592Z,1.60
2018-08-10T13:25:25.138Z,1.20
2018-08-10T13:27:54.742Z,1.27
2018-08-10T13:30:24.363Z,0.90
2018-08-10T13:32:53.900Z,1.13
2018-08-10T13:35:23.475Z,1.40
2018-08-10T13:37:53.096Z,1.47
2018-08-10T13:40:22.790Z,1.30
2018-08-10T13:42:52.441Z,1.20
2018-08-10T13:45:22.036Z,1.10
2018-08-10T13:47:51.551Z,1.30
2018-08-10T13:50:21.113Z,1.07
2018-08-10T13:52:50.862Z,1.50
2018-08-10T13:55:20.817Z,1.13
2018-08-10T13:57:50.452Z,1.53
2018-08-10T14:00:20.360Z,1.20
2018-08-10T14:02:52.301Z,1.30
2018-08-10T14:05:22.553Z,1.47
2018-08-10T14:07:52.824Z,1.20
2018-08-10T14:10:22.672Z,1.40
2018-08-10T14:12:52.224Z,0.93
2018-08-10T14:15:21.860Z,1.50
2018-08-10T14:17:51.411Z,1.40
2018-08-10T14:20:21.009Z,1.40
2018-08-10T14:22:50.532Z,1.23
2018-08-10T14:25:20.069Z,1.30
2018-08-10T14:27:49.777Z,2.00
2018-08-10T14:30:19.282Z,1.37
2018-08-10T14:32:49.027Z,1.43
2018-08-10T14:35:18.608Z,1.83
2018-08-10T14:37:48.246Z,1.30
2018-08-10T14:40:17.833Z,1.70
2018-08-10T14:42:47.520Z,1.90
2018-08-10T14:45:17.477Z,2.17
2018-08-10T14:47:46.937Z,1.80
2018-08-10T14:50:16.397Z,1.73
2018-08-10T14:52:46.593Z,2.00
2018-08-10T14:55:16.813Z,1.30
2018-08-10T14:57:46.436Z,1.73
2018-08-10T15:00:20.613Z,1.50
2018-08-10T15:02:50.530Z,1.57
2018-08-10T15:05:20.043Z,0.97
2018-08-10T15:07:49.544Z,2.17
2018-08-10T15:10:19.105Z,1.20
2018-08-10T15:12:48.835Z,1.30
2018-08-10T15:15:19.617Z,1.63
2018-08-10T15:17:49.350Z,1.07
2018-08-10T15:20:21.309Z,1.40
2018-08-10T15:22:50.953Z,1.87
2018-08-10T15:25:20.512Z,1.73
2018-08-10T15:27:50.205Z,1.30
2018-08-10T15:30:20.262Z,1.63
2018-08-10T15:32:49.840Z,1.60
2018-08-10T15:35:19.446Z,1.90
2018-08-10T15:37:49.088Z,1.83
2018-08-10T15:40:19.798Z,1.43
2018-08-10T15:42:49.449Z,2.37
2018-08-10T15:45:19.784Z,1.60
2018-08-10T15:47:49.257Z,1.77
2018-08-10T15:50:18.861Z,1.43
2018-08-10T15:52:48.343Z,1.63
2018-08-10T15:55:17.996Z,1.90
2018-08-10T15:57:47.661Z,1.47
2018-08-10T16:00:22.449Z,1.60
2018-08-10T16:02:52.130Z,1.70
2018-08-10T16:05:21.960Z,1.00
2018-08-10T16:07:51.545Z,1.63
2018-08-10T16:10:21.277Z,1.37
2018-08-10T16:12:50.772Z,1.80
2018-08-10T16:15:20.253Z,1.97
2018-08-10T16:17:50.008Z,1.37
2018-08-10T16:20:21.862Z,1.50
2018-08-10T16:22:52.005Z,1.40
2018-08-10T16:25:21.564Z,1.37
2018-08-10T16:27:51.147Z,2.27
2018-08-10T16:30:20.733Z,1.23
2018-08-10T16:32:50.246Z,1.70
2018-08-10T16:35:20.001Z,1.87
2018-08-10T16:37:49.446Z,1.67
2018-08-10T16:40:19.969Z,1.47
2018-08-10T16:42:49.531Z,1.37
2018-08-10T16:45:19.224Z,1.20
2018-08-10T16:47:48.856Z,1.20
2018-08-10T16:50:19.433Z,1.27
2018-08-10T16:52:48.973Z,1.27
2018-08-10T16:55:19.848Z,1.40
2018-08-10T16:57:50.145Z,1.40
2018-08-10T17:00:21.599Z,1.53
2018-08-10T17:02:51.322Z,1.40
2018-08-10T17:05:20.985Z,1.50
2018-08-10T17:07:50.549Z,1.37
2018-08-10T17:10:20.113Z,1.40
2018-08-10T17:12:49.780Z,1.10
2018-08-10T17:15:20.441Z,1.30
2018-08-10T17:17:50.020Z,1.23
2018-08-10T17:20:19.737Z,1.40
2018-08-10T17:22:49.344Z,0.80
2018-08-10T17:25:20.799Z,1.30
2018-08-10T17:27:50.376Z,1.30
2018-08-10T17:30:20.671Z,1.00
2018-08-10T17:32:50.251Z,1.23
2018-08-10T17:35:19.902Z,0.80
2018-08-10T17:37:49.481Z,1.07
2018-08-10T17:40:19.131Z,0.90
2018-08-10T17:42:48.680Z,0.93
2018-08-10T17:45:18.791Z,1.20
2018-08-10T17:47:48.287Z,0.97
2018-08-10T17:50:20.169Z,1.20
2018-08-10T17:52:52.338Z,1.17
2018-08-10T17:55:22.478Z,1.10
2018-08-10T17:57:52.229Z,1.23
2018-08-10T18:00:25.653Z,0.87
2018-08-10T18:02:55.324Z,0.83
2018-08-10T18:05:24.931Z,1.10
2018-08-10T18:07:54.535Z,1.30
2018-08-10T18:10:24.159Z,1.37
2018-08-10T18:12:53.820Z,0.77
2018-08-10T18:15:23.402Z,1.37
2018-08-10T18:17:53.049Z,1.50
2018-08-10T18:20:23.224Z,0.90
2018-08-10T18:22:53.271Z,0.80
2018-08-10T18:25:23.642Z,1.13
2018-08-10T18:27:53.904Z,1.57
2018-08-10T18:30:25.293Z,1.70
2018-08-10T18:32:54.852Z,1.07
2018-08-10T18:35:26.702Z,0.80
2018-08-10T18:37:58.592Z,2.87
2018-08-10T18:40:28.253Z,1.27
2018-08-10T18:42:57.790Z,4.77
2018-08-10T18:45:27.376Z,4.40
2018-08-10T18:47:57.018Z,2.70
2018-08-10T18:50:26.576Z,2.90
2018-08-10T18:52:56.111Z,3.30
2018-08-10T18:55:25.656Z,1.50
2018-08-10T18:57:55.269Z,1.87
2018-08-10T19:00:27.486Z,1.47
2018-08-10T19:02:57.005Z,1.80
2018-08-10T19:05:26.560Z,1.57
2018-08-10T19:07:56.141Z,1.13
2018-08-10T19:10:27.836Z,1.13
2018-08-10T19:12:57.489Z,1.43
2018-08-10T19:15:27.137Z,1.23
2018-08-10T19:17:56.647Z,0.87
2018-08-10T19:20:26.188Z,1.47
2018-08-10T19:22:55.791Z,1.13
2018-08-10T19:25:25.334Z,1.40
2018-08-10T19:27:54.852Z,1.37
2018-08-10T19:30:25.233Z,1.60
2018-08-10T19:32:54.848Z,0.87
2018-08-10T19:35:24.327Z,1.00
2018-08-10T19:37:53.915Z,1.10
2018-08-10T19:40:23.636Z,1.07
2018-08-10T19:42:53.470Z,1.40
2018-08-10T19:45:23.144Z,0.90
2018-08-10T19:47:52.901Z,1.20
2018-08-10T19:50:23.383Z,1.73
2018-08-10T19:52:53.728Z,1.47
2018-08-10T19:55:23.311Z,1.20
2018-08-10T19:57:52.804Z,1.60
2018-08-10T20:00:22.379Z,1.10
2018-08-10T20:02:52.314Z,1.03
2018-08-10T20:05:21.892Z,1.10
2018-08-10T20:07:51.440Z,1.00
2018-08-10T20:10:21.117Z,1.40
2018-08-10T20:12:50.704Z,0.87
2018-08-10T20:15:20.426Z,1.30
2018-08-10T20:17:50.033Z,1.33
2018-08-10T20:20:19.924Z,1.30
2018-08-10T20:22:49.609Z,1.10
2018-08-10T20:25:19.186Z,0.97
2018-08-10T20:27:48.836Z,1.77
2018-08-10T20:30:19.316Z,1.40
2018-08-10T20:32:49.437Z,1.63
2018-08-10T20:35:21.134Z,1.47
2018-08-10T20:37:50.875Z,1.07
2018-08-10T20:40:21.108Z,1.67
2018-08-10T20:42:50.882Z,1.20
2018-08-10T20:45:21.448Z,1.10
2018-08-10T20:47:50.935Z,1.40
2018-08-10T20:50:21.894Z,1.13
2018-08-10T20:52:51.856Z,2.03
2018-08-10T20:55:21.747Z,1.20
2018-08-10T20:57:51.492Z,1.37
2018-08-10T21:00:21.025Z,2.47
2018-08-10T21:02:50.550Z,1.87
2018-08-10T21:05:20.111Z,2.10
2018-08-10T21:07:49.742Z,1.70
2018-08-10T21:10:19.291Z,1.90
2018-08-10T21:12:48.965Z,2.17
2018-08-10T21:15:18.567Z,2.00
2018-08-10T21:17:48.066Z,2.60
2018-08-10T21:20:18.395Z,1.90
2018-08-10T21:22:47.899Z,1.87
2018-08-10T21:25:17.474Z,2.97
2018-08-10T21:27:47.116Z,1.70
2018-08-10T21:30:19.363Z,1.67
2018-08-10T21:32:49.363Z,2.40
2018-08-10T21:35:18.936Z,2.50
2018-08-10T21:37:48.636Z,2.20
2018-08-10T21:40:18.172Z,3.00
2018-08-10T21:42:47.682Z,2.10
2018-08-10T21:45:17.276Z,3.10
2018-08-10T21:47:46.873Z,2.50
2018-08-10T21:50:16.471Z,2.17
2018-08-10T21:52:46.373Z,2.50
2018-08-10T21:55:15.912Z,2.17
2018-08-10T21:57:45.336Z,2.40
2018-08-10T22:00:32.700Z,3.07
2018-08-10T22:03:02.261Z,3.53
2018-08-10T22:05:31.951Z,2.40
2018-08-10T22:08:03.416Z,2.53
2018-08-10T22:10:32.933Z,3.30
2018-08-10T22:13:02.477Z,3.47
2018-08-10T22:15:37.262Z,3.87
2018-08-10T22:18:11.932Z,3.00
2018-08-10T22:20:41.430Z,3.70
2018-08-10T22:23:10.855Z,3.10
2018-08-10T22:25:40.315Z,2.97
2018-08-10T22:28:09.875Z,3.10
2018-08-10T22:30:39.461Z,3.43
2018-08-10T22:33:09.184Z,2.90
2018-08-10T22:35:38.722Z,3.03
2018-08-10T22:38:08.298Z,3.33
2018-08-10T22:40:37.772Z,3.90
2018-08-10T22:43:07.916Z,3.50
2018-08-10T22:45:37.463Z,3.70
2018-08-10T22:48:07.039Z,3.10
2018-08-10T22:50:36.601Z,4.40
2018-08-10T22:53:06.192Z,3.80
2018-08-10T22:55:36.259Z,3.60
2018-08-10T22:58:05.821Z,3.70
2018-08-10T23:00:35.433Z,3.63
2018-08-10T23:03:05.128Z,3.90
2018-08-10T23:05:34.631Z,4.20
2018-08-10T23:08:04.161Z,3.50
2018-08-10T23:10:33.631Z,3.70
2018-08-10T23:13:03.288Z,4.10
2018-08-10T23:15:32.925Z,3.90
2018-08-10T23:18:02.462Z,3.90
2018-08-10T23:20:32.080Z,4.70
2018-08-10T23:23:01.615Z,3.60
2018-08-10T23:25:31.301Z,4.27
2018-08-10T23:28:00.872Z,3.67
2018-08-10T23:30:30.421Z,3.70
2018-08-10T23:33:00.053Z,4.73
2018-08-10T23:35:29.572Z,4.70
2018-08-10T23:37:59.112Z,4.33
2018-08-10T23:40:28.927Z,4.07
2018-08-10T23:42:58.458Z,4.70
2018-08-10T23:45:27.903Z,4.23
2018-08-10T23:47:57.526Z,4.40
2018-08-10T23:50:27.069Z,3.83
2018-08-10T23:52:56.563Z,4.47
2018-08-10T23:55:26.592Z,4.57
2018-08-10T23:57:56.092Z,4.20
